Schumacher, Canada
Current Conditions -  °F | °C
As of 11:00 PM on Thursday 27 Nov 2014 (Local Time) from CYTS Reporting Station
Light Snow Light Snow  
Wind Chill: -18°   Ceiling: 3200
Heat Index: -6°   Visibility: 15mi
Dew Point: -9°   Wind: 6mph
Humidity: 84%   Direction: 330°NNW
Pressure: 30.2"   Gusts: NA
Location:  48.48°N, 81.3°W
Report Text: CYTS 280400Z 33005KT 15SM -SN BKN032 M21/M23 A3020 RMK SC5 SLP259
Loading
Personal Weather Stations






























Interactive Weather Map New forecast layout! Learn more

10-Day Weather Forecast

Advertisements
Track Severe Weather on mobile